Weather reports worldwide

Advertisment
Santa Susana, Spain (8188): temperature & dewpoint: 22.01.2020 07:00:00 - 28.01.2020 07:00:00 (CET)Santa Susana, Spain (8188): wind speed & gusts: 22.01.2020 07:00:00 - 28.01.2020 07:00:00 (CET)Santa Susana, Spain (8188): wind direction: 22.01.2020 07:00:00 - 28.01.2020 07:00:00 (CET)Santa Susana, Spain (8188): precipitation: 22.01.2020 07:00:00 - 28.01.2020 07:00:00 (CET)
Date & Time tt [°C] td [°C] ff [km/h] ff [kn] fx [km/h] fx [kn] dd rr [mm]
28.01.2020 07:00:00 - - - - - - - -
28.01.2020 06:00:00 12,4 3,6 9 5 30 16 W 0,0
28.01.2020 05:00:00 11,5 3,6 7 4 22 12 W 0,0
28.01.2020 04:00:00 11,1 3,6 4 2 31 17 E 0,0
28.01.2020 03:00:00 10,3 2,9 13 7 32 17 SW 0,0
28.01.2020 02:00:00 10,4 2,5 2 1 16 9 W 0,0
28.01.2020 01:00:00 9,7 1,9 3 2 34 18 SE -
28.01.2020 00:00:00 10,0 1,7 5 3 29 16 SW 0,0
27.01.2020 23:00:00 10,7 1,5 1 1 51 27 WNW 0,0
27.01.2020 22:00:00 10,1 1,5 15 8 37 20 SSW 0,0
27.01.2020 21:00:00 10,4 1,3 8 4 27 15 SW 0,0
27.01.2020 20:00:00 10,6 0,6 4 2 18 10 W 0,0
27.01.2020 19:00:00 10,5 0,4 4 2 28 15 WSW -
27.01.2020 18:00:00 11,5 1,1 13 7 38 20 SSW 0,0
27.01.2020 17:00:00 12,0 0,6 15 8 41 22 SW 0,0
27.01.2020 16:00:00 12,7 1,3 11 6 41 22 WSW 0,0
27.01.2020 15:00:00 12,7 2,3 5 3 34 18 W 0,0
27.01.2020 14:00:00 12,2 1,9 6 3 46 25 W 0,0
27.01.2020 13:00:00 - - - - - - - -
27.01.2020 12:00:00 11,8 4,3 5 3 29 16 SW 0,0
27.01.2020 11:00:00 10,2 4,8 13 7 27 14 SW 0,0
27.01.2020 10:00:00 7,4 6,1 9 5 16 9 SW 0,0
27.01.2020 09:00:00 3,5 2,1 1 1 6 3 WSW 0,0
27.01.2020 08:00:00 3,1 1,7 1 1 7 4 ENE 0,0
27.01.2020 07:00:00 3,4 2,1 2 1 6 3 ENE -
27.01.2020 06:00:00 3,9 2,5 0 0 6 3 NW 0,0
27.01.2020 05:00:00 4,0 2,7 0 0 9 5 SW 0,0
27.01.2020 04:00:00 4,0 2,7 2 1 8 4 ENE 0,0
27.01.2020 03:00:00 4,0 2,7 1 1 6 3 ENE 0,1
27.01.2020 02:00:00 4,1 2,7 1 1 5 3 ENE 0,0
27.01.2020 01:00:00 4,9 3,6 2 1 4 2 ENE -
27.01.2020 00:00:00 5,9 4,5 0 0 4 2 ENE 0,0
26.01.2020 23:00:00 7,0 5,6 1 1 5 3 NE 0,0
26.01.2020 22:00:00 7,1 5,8 3 2 4 2 ENE 0,0
26.01.2020 21:00:00 7,8 6,4 3 1 5 3 NE 0,0
26.01.2020 20:00:00 8,3 7,0 1 0 4 2 NE 0,0
26.01.2020 19:00:00 9,3 7,8 1 0 6 4 ENE -
26.01.2020 18:00:00 10,1 8,7 1 1 5 3 ENE 0,0
26.01.2020 17:00:00 11,0 9,4 0 0 4 2 N 0,0
26.01.2020 16:00:00 11,4 9,4 1 0 9 5 SW 1,3
26.01.2020 15:00:00 14,2 7,4 2 1 13 7 E 0,0
26.01.2020 14:00:00 13,8 8,3 4 2 18 10 NE 0,0
26.01.2020 13:00:00 12,8 6,4 6 3 19 10 NNE -
26.01.2020 12:00:00 12,1 6,8 2 1 8 4 WNW 0,0
26.01.2020 11:00:00 9,7 7,8 3 1 11 6 WNW 0,0
26.01.2020 10:00:00 8,1 6,7 6 3 10 6 NE 0,0
26.01.2020 09:00:00 7,0 5,6 1 0 4 2 N 0,0
26.01.2020 08:00:00 6,8 5,5 1 1 4 2 NE 0,0
26.01.2020 07:00:00 7,3 5,9 1 0 4 2 NE -
26.01.2020 06:00:00 7,4 6,1 1 1 5 3 ENE 0,0
26.01.2020 05:00:00 6,6 5,3 1 0 4 2 NE 0,0
26.01.2020 04:00:00 6,3 5,0 1 1 4 2 NE 0,0
26.01.2020 03:00:00 6,7 5,3 0 0 6 3 NE 0,0
26.01.2020 02:00:00 7,3 5,9 1 0 5 3 NE 0,0
26.01.2020 01:00:00 7,5 6,1 2 1 4 2 ENE -
26.01.2020 00:00:00 8,3 7,0 0 0 4 2 NE 0,0
25.01.2020 23:00:00 8,6 7,3 1 1 4 2 NE 0,0
25.01.2020 22:00:00 9,3 7,8 0 0 2 1 NNW 0,0
25.01.2020 21:00:00 10,4 8,8 0 0 1 1 N 0,0
25.01.2020 20:00:00 10,9 9,3 0 0 2 1 E 0,0
25.01.2020 19:00:00 11,3 9,6 0 0 4 2 S -
25.01.2020 18:00:00 11,6 9,7 1 1 7 4 ENE 0,0
25.01.2020 17:00:00 11,9 9,7 1 0 7 4 S 0,0
25.01.2020 16:00:00 12,5 9,3 0 0 13 7 NNE 0,0
25.01.2020 15:00:00 13,2 8,9 8 4 14 7 SW 0,0
25.01.2020 14:00:00 12,8 8,5 3 2 7 4 WSW 0,0
25.01.2020 13:00:00 12,5 8,5 4 2 9 5 SW -
25.01.2020 12:00:00 12,2 9,4 0 0 10 6 W 0,0
25.01.2020 11:00:00 11,3 9,7 4 2 8 4 SW 0,0
25.01.2020 10:00:00 9,0 7,6 1 1 4 2 NNE 0,0
25.01.2020 09:00:00 6,3 5,0 0 0 7 4 NE 0,0
25.01.2020 08:00:00 5,1 3,8 0 0 0 0 N 0,0
25.01.2020 07:00:00 4,6 3,2 0 0 4 2 NW -
25.01.2020 06:00:00 5,5 4,1 3 1 4 2 ENE 0,0
25.01.2020 05:00:00 5,9 4,5 1 0 8 4 ENE 0,0
25.01.2020 04:00:00 6,0 4,6 4 2 6 4 ENE 0,0
25.01.2020 03:00:00 5,4 4,1 4 2 6 4 ENE 0,0
25.01.2020 02:00:00 5,6 4,3 2 1 5 3 NNE 0,0
25.01.2020 01:00:00 5,9 4,5 2 1 6 3 NE -
25.01.2020 00:00:00 6,2 4,8 4 2 7 4 ENE 0,0
24.01.2020 23:00:00 6,6 5,3 1 0 8 4 NNW 0,0
24.01.2020 22:00:00 7,1 5,6 1 0 6 4 NNE 0,0
24.01.2020 21:00:00 9,4 7,6 5 3 11 6 NNW 0,0
24.01.2020 20:00:00 9,6 7,8 4 2 10 6 NNW 0,0
24.01.2020 19:00:00 8,2 6,7 1 1 7 4 NNE -
24.01.2020 18:00:00 9,1 7,3 0 0 8 5 WSW 0,0
24.01.2020 17:00:00 11,6 7,6 3 2 23 13 SSW 0,0
24.01.2020 16:00:00 13,1 6,7 13 7 23 12 SSW 0,0
24.01.2020 15:00:00 13,1 6,7 13 7 24 13 SSW 0,0
24.01.2020 14:00:00 13,0 6,4 13 7 21 11 SSW 0,0
24.01.2020 13:00:00 12,3 6,5 14 8 24 13 SSW -
24.01.2020 12:00:00 9,7 8,3 6 3 11 6 SSW 0,0
24.01.2020 11:00:00 8,1 6,7 1 0 4 2 ENE 0,0
24.01.2020 10:00:00 5,7 4,3 0 0 4 2 NNE 0,0
24.01.2020 09:00:00 4,0 2,7 1 0 6 3 NW 0,0
24.01.2020 08:00:00 3,7 2,3 3 1 7 4 NW 0,0
24.01.2020 07:00:00 3,3 1,9 1 1 4 2 NE -
24.01.2020 06:00:00 3,5 2,1 1 1 4 2 NE 0,0
24.01.2020 05:00:00 3,4 2,1 3 2 5 3 ENE 0,0
24.01.2020 04:00:00 3,5 2,1 1 1 4 2 NE 0,0
24.01.2020 03:00:00 4,4 3,0 1 0 4 2 NNE 0,0
24.01.2020 02:00:00 4,1 2,7 2 1 5 3 ENE 0,0
24.01.2020 01:00:00 4,9 3,6 1 0 5 3 N -
24.01.2020 00:00:00 4,7 3,4 3 1 5 3 ENE 0,0
23.01.2020 23:00:00 5,1 3,8 0 0 4 2 NNE 0,0
23.01.2020 22:00:00 5,3 3,9 1 1 5 3 NE 0,0
23.01.2020 21:00:00 5,9 4,5 0 0 4 2 NE 0,0
23.01.2020 20:00:00 6,9 5,5 0 0 4 2 NNW 0,0
23.01.2020 19:00:00 8,2 6,7 1 0 8 5 NW -
23.01.2020 18:00:00 9,7 7,4 4 2 12 6 SSW 0,0
23.01.2020 17:00:00 11,7 7,8 4 2 19 10 S 0,0
23.01.2020 16:00:00 12,9 7,7 10 6 18 10 SW 0,0
23.01.2020 15:00:00 13,4 8,3 9 5 20 11 SW 0,0
23.01.2020 14:00:00 13,3 8,8 10 6 20 11 SW 0,0
23.01.2020 13:00:00 13,5 8,4 6 4 16 9 SW -
23.01.2020 12:00:00 12,9 9,7 3 1 13 7 SW 0,0
23.01.2020 11:00:00 11,6 9,8 2 1 13 7 W 0,0
23.01.2020 10:00:00 10,9 9,4 3 2 16 9 SW 0,0
23.01.2020 09:00:00 10,3 8,9 1 0 27 15 ENE 0,0
23.01.2020 08:00:00 12,7 11,2 2 1 21 11 W 0,0
23.01.2020 07:00:00 12,7 11,2 1 1 16 9 ENE -
23.01.2020 06:00:00 12,8 11,3 1 1 18 10 NE 0,3
23.01.2020 05:00:00 12,4 11,0 1 1 22 12 ENE 1,0
23.01.2020 04:00:00 12,3 10,9 1 1 16 9 ESE 1,0
23.01.2020 03:00:00 12,4 11,0 2 1 19 10 ENE 0,6
23.01.2020 02:00:00 12,3 10,9 1 0 21 11 N 2,0
23.01.2020 01:00:00 12,3 10,9 2 1 15 8 E -
23.01.2020 00:00:00 12,6 11,2 3 1 14 8 ENE 0,5
22.01.2020 23:00:00 12,9 11,3 5 3 18 10 ENE 0,1
22.01.2020 22:00:00 13,0 11,2 2 1 14 8 ENE 0,0
22.01.2020 21:00:00 12,9 11,3 2 1 20 11 ENE 0,0
22.01.2020 20:00:00 12,9 11,1 1 0 23 12 S 0,1
22.01.2020 19:00:00 13,1 11,3 3 2 21 11 ENE -
22.01.2020 18:00:00 13,1 11,4 2 1 16 9 NE 0,0
22.01.2020 17:00:00 12,9 11,3 3 2 20 11 ENE 0,0
22.01.2020 16:00:00 12,9 11,3 2 1 18 10 ENE 0,1
22.01.2020 15:00:00 12,9 11,3 1 1 13 7 E 0,0
22.01.2020 14:00:00 12,9 11,3 3 2 16 9 ENE 0,0
22.01.2020 13:00:00 13,2 11,6 2 1 16 9 NE -
22.01.2020 12:00:00 13,1 11,4 2 1 17 9 NE 0,1
22.01.2020 11:00:00 13,0 11,4 1 0 28 15 SSE 0,0
22.01.2020 10:00:00 12,8 11,3 1 1 16 9 NNE 0,0
22.01.2020 09:00:00 12,6 11,2 1 1 12 6 E 0,0
22.01.2020 08:00:00 12,4 11,0 2 1 18 10 ENE 0,0
22.01.2020 07:00:00 12,4 11,0 1 1 14 7 E -

tt = temperature
td = dewpoint
ff = wind speed
fx = gusts
dd = wind direction
rr = precipitation

Next stations